• Join FlightAware (Why Join?)
  • Login
  • US Flag 
07:57AM EST


 

Airport Tracker/Info


-or-


 

Live Flight TrackerFlight Track Log ✈ SKW5631 ✈ 08-Jun-2013 ✈ KSFO - KBUR

Flight Track Log - Related Links

Times and Time Zones

All times are in EDT time to prevent confusion due to time zone crossing. See the SKW5631 flight status page for this flight to view local times or setup timezone preferences in your user account.

Time Position Orientation Groundspeed Altitude Reporting Facility
EDT Latitude Longitude Course Direction KTS MPH feet Rate Location/Type
10:27PM 36.8811 -121.4642 135° Southeast  Level Estimated
10:28PM 36.7987 -121.3641 136° Southeast  Level Estimated
10:29PM 36.7162 -121.2642 136° Southeast  Level Estimated
10:30PM 36.6336 -121.1645 136° Southeast  Level Estimated
10:31PM 36.5510 -121.0650 136° Southeast  Level Estimated
10:32PM 36.4682 -120.9657 136° Southeast  Level Estimated
10:33PM 36.3854 -120.8667 136° Southeast  Level Estimated
10:34PM 36.3025 -120.7678 136° Southeast  Level Estimated
10:35PM 36.2195 -120.6692 136° Southeast  Level Estimated
10:36PM 36.1364 -120.5707 136° Southeast  Level Estimated
10:37PM 36.0532 -120.4725 136° Southeast  Level Estimated
10:38PM 35.9700 -120.3745 136° Southeast  Level Estimated
10:39PM 35.8867 -120.2767 136° Southeast  Level Estimated
10:40PM 35.8033 -120.1791 136° Southeast  Level Estimated
10:41PM 35.7198 -120.0817 137° Southeast  Level Estimated
10:42PM 35.6362 -119.9845 137° Southeast  Level Estimated
10:43PM 35.5526 -119.8875 137° Southeast  Level Estimated
10:44PM 35.4689 -119.7907 137° Southeast  Level Estimated
10:45PM 35.3851 -119.6941 137° Southeast  Level Estimated
10:46PM 35.3012 -119.5977 137° Southeast  Level Estimated
10:47PM 35.2173 -119.5015 137° Southeast  Level Estimated
10:48PM 35.1333 -119.4056 137° Southeast  Level Estimated
10:49PM 35.0492 -119.3098 137° Southeast  Level Estimated
10:50PM 34.9650 -119.2142 137° Southeast  Level Estimated
10:51PM 34.8808 -119.1188 137° Southeast  Level Estimated
10:52PM 34.7965 -119.0236 137° Southeast  Level Estimated
10:53PM 34.7121 -118.9286 137° Southeast  Level Estimated
10:54PM 34.6276 -118.8338 137° Southeast  Level Estimated
10:55PM 34.5431 -118.7391 137° Southeast  Level Estimated
10:56PM 34.4585 -118.6447 137° Southeast  Level Estimated
10:57PM 34.3738 -118.5505 137° Southeast  Level Estimated
10:58PM 34.2890 -118.4564 137° Southeast  Level Estimated
10:59PM 34.2042 -118.3626 138° Southeast  Level Estimated
11:00PM 34.2007 -118.3587 138° Southeast  Level Estimated
11:01PM 34.2007 -118.3587 140° Southeast  Level Estimated
11:02PM 34.2007 -118.3587 140° Southeast  Level Estimated
11:03PM 34.2007 -118.3587 140° Southeast  Level Estimated
11:04PM 34.2007 -118.3587 140° Southeast  Level Estimated
11:05PM 34.2007 -118.3587 140° Southeast  Level Estimated
11:06PM 34.2007 -118.3587 140° Southeast  Level Estimated
11:07PM 34.2007 -118.3587 140° Southeast  Level Estimated
11:08PM 34.2007 -118.3587 140° Southeast  Level Estimated
11:09PM 34.2007 -118.3587 140° Southeast  Level Estimated
11:10PM 34.2007 -118.3587 140° Southeast  Level Estimated
11:11PM 34.2007 -118.3587 140° Southeast  Level Estimated
11:12PM 34.2007 -118.3587 140° Southeast  Level Estimated
11:13PM 34.2007 -118.3587 140° Southeast  Level Estimated
11:14PM 34.2007 -118.3587 140° Southeast  Level Estimated
11:15PM 34.2007 -118.3587 140° Southeast  Level Estimated